Time;durP1;ratioP1;P1;durP2;ratioP2;P2;SDS_P1;SDS_P2;PMS_P1;PMS_P2;Temp;Humidity;BMP_temperature;BMP_pressure;BME280_temperature;BME280_humidity;BME280_pressure;Samples;Min_cycle;Max_cycle;Signal;HPM_P1;HPM_P2
2021/05/31 01:32:03;;;;;;;;;;;;;;;;;;;;;
2021/05/31 02:46:51;;;;;;;8.75;7.95;;;;;;;13.24;75.28;94287.56;809099;72;32847;-86
2021/05/31 03:16:15;;;;;;;7.53;6.92;;;;;;;13.93;80.32;94293.89;820406;71;33127;-79
2021/05/31 03:31:08;;;;;;;7.50;6.87;;;;;;;17.50;67.86;94275.52;821818;71;29765;-76
2021/05/31 03:46:12;;;;;;;8.95;8.15;;;;;;;15.71;65.54;94289.19;828545;71;31956;-77
2021/05/31 04:01:15;;;;;;;9.00;8.08;;;;;;;14.62;68.15;94287.11;827503;71;33739;-77
2021/05/31 04:16:08;;;;;;;10.13;9.13;;;;;;;14.20;70.37;94296.72;834041;71;30176;-76
2021/05/31 04:31:10;;;;;;;9.25;8.40;;;;;;;14.07;69.82;94287.11;833941;71;30737;-79
2021/05/31 04:46:16;;;;;;;9.55;8.55;;;;;;;14.51;70.07;94290.39;834974;71;33418;-79
2021/05/31 05:01:15;;;;;;;9.45;8.50;;;;;;;14.97;66.83;94288.80;827682;71;32680;-76
2021/05/31 05:16:08;;;;;;;9.58;7.40;;;;;;;17.97;63.29;94277.59;823350;71;29747;-76
2021/05/31 05:31:10;;;;;;;8.03;7.25;;;;;;;19.92;54.28;94284.84;834804;71;29708;-77
2021/05/31 06:01:19;;;;;;;7.60;6.90;;;;;;;21.33;48.20;94285.97;827412;71;33494;-76
2021/05/31 06:16:10;;;;;;;7.30;6.58;;;;;;;21.81;46.84;94280.30;812156;71;29774;-77
2021/05/31 06:31:08;;;;;;;8.00;7.30;;;;;;;22.76;44.47;94260.78;828407;71;29728;-76
2021/05/31 06:46:19;;;;;;;6.43;5.83;;;;;;;22.93;42.94;94262.07;827420;71;32689;-74
2021/05/31 07:01:10;;;;;;;7.07;6.10;;;;;;;22.96;42.60;94259.97;828440;71;29712;-75
2021/05/31 07:16:10;;;;;;;6.27;5.77;;;;;;;23.16;42.07;94260.51;829640;71;29684;-76
2021/05/31 07:31:08;;;;;;;5.40;5.00;;;;;;;23.25;41.67;94255.39;829489;71;29705;-77
2021/05/31 07:46:09;;;;;;;6.17;5.77;;;;;;;23.34;41.19;94253.16;828223;71;30235;-77
2021/05/31 08:01:09;;;;;;;5.73;5.30;;;;;;;24.31;39.63;94247.55;828284;71;30314;-76
2021/05/31 08:16:17;;;;;;;5.73;5.13;;;;;;;24.25;39.02;94237.56;827448;71;33258;-75
2021/05/31 08:31:08;;;;;;;5.90;5.17;;;;;;;24.39;38.64;94234.89;829892;71;29622;-78
2021/05/31 08:46:16;;;;;;;5.20;4.80;;;;;;;24.09;38.59;94223.20;834247;71;32638;-76
2021/05/31 09:16:17;;;;;;;5.40;4.90;;;;;;;24.53;37.65;94216.72;828075;71;32708;-76
2021/05/31 09:31:19;;;;;;;5.50;5.10;;;;;;;24.71;37.17;94216.72;835299;71;32098;-77
2021/05/31 09:46:15;;;;;;;4.47;4.20;;;;;;;25.13;36.17;94208.41;827556;71;33250;-78
2021/05/31 10:01:15;;;;;;;27.70;25.60;;;;;;;25.18;37.61;94192.66;829312;71;32725;-77
2021/05/31 10:16:14;;;;;;;4.30;4.10;;;;;;;25.21;35.69;94180.40;834194;71;32788;-76
2021/05/31 10:31:10;;;;;;;6.57;3.93;;;;;;;24.25;34.73;94167.28;828856;71;29939;-77
2021/05/31 10:46:08;;;;;;;4.93;3.87;;;;;;;24.24;35.02;94155.02;828307;71;29714;-76
2021/05/31 11:01:12;;;;;;;4.00;3.57;;;;;;;24.51;34.10;94137.98;828286;71;30223;-76
2021/05/31 11:16:09;;;;;;;5.23;3.77;;;;;;;24.14;34.39;94132.41;828469;71;29706;-75
2021/05/31 11:31:16;;;;;;;3.57;3.37;;;;;;;23.78;35.17;94124.37;827460;71;33164;-77
2021/05/31 11:46:15;;;;;;;3.83;3.53;;;;;;;23.02;36.02;94125.27;827458;71;33304;-75
2021/05/31 12:01:13;;;;;;;4.30;3.30;;;;;;;21.89;39.12;94125.44;828258;71;32507;-77
2021/05/31 12:16:28;;;;;;;3.33;3.12;;;;;;;20.78;39.81;94124.98;827264;71;32914;-76
2021/05/31 12:31:16;;;;;;;3.80;3.50;;;;;;;20.80;39.97;94118.18;833947;71;32681;-77
2021/05/31 12:46:20;;;;;;;3.60;3.30;;;;;;;20.84;40.53;94116.11;828341;71;30829;-77
2021/05/31 13:01:15;;;;;;;3.40;3.10;;;;;;;21.38;40.17;94102.81;834168;71;33215;-77
2021/05/31 13:16:13;;;;;;;3.33;3.07;;;;;;;21.69;40.01;94098.17;828714;71;33077;-77
2021/05/31 13:31:18;;;;;;;3.58;3.37;;;;;;;21.12;39.48;94103.67;834140;71;33238;-78
2021/05/31 13:46:14;;;;;;;3.58;3.30;;;;;;;20.65;39.47;94111.69;828257;71;32071;-76
2021/05/31 14:01:15;;;;;;;3.10;2.90;;;;;;;20.22;39.92;94102.50;827512;71;32724;-75
2021/05/31 14:16:15;;;;;;;3.45;3.22;;;;;;;19.85;40.24;94096.97;827394;71;33246;-75
2021/05/31 14:31:09;;;;;;;3.00;2.80;;;;;;;20.10;39.85;94088.81;828843;71;29778;-77
2021/05/31 14:46:09;;;;;;;3.77;3.42;;;;;;;20.32;39.71;94089.13;821391;70;29839;-77
2021/05/31 15:16:09;;;;;;;3.12;2.92;;;;;;;19.17;44.15;94111.18;828191;71;30341;-77
2021/05/31 15:31:11;;;;;;;4.10;3.70;;;;;;;18.80;46.88;94112.94;833999;71;29807;-77
2021/05/31 15:46:15;;;;;;;24.32;21.65;;;;;;;19.15;44.65;94104.11;828879;71;32796;-78
2021/05/31 16:01:12;;;;;;;3.50;3.30;;;;;;;18.86;44.81;94099.58;828337;71;32128;-75
2021/05/31 16:16:15;;;;;;;4.20;3.80;;;;;;;18.39;45.08;94098.59;827909;71;32654;-76
2021/05/31 16:31:14;;;;;;;5.55;5.10;;;;;;;18.14;45.91;94108.64;834720;71;32703;-78
2021/05/31 16:46:28;;;;;;;4.50;4.10;;;;;;;17.61;47.25;94106.23;821368;71;32674;-76
2021/05/31 17:01:14;;;;;;;5.53;5.03;;;;;;;17.33;48.22;94112.14;833759;71;32800;-77
2021/05/31 17:46:15;;;;;;;5.97;5.45;;;;;;;15.91;50.27;94167.24;830381;70;33570;-74
2021/05/31 18:01:16;;;;;;;4.10;3.80;;;;;;;15.54;51.58;94163.19;835083;71;32673;-76
2021/05/31 18:16:08;;;;;;;4.22;3.92;;;;;;;15.14;52.78;94169.75;823028;71;29663;-79
2021/05/31 18:46:21;;;;;;;4.50;4.08;;;;;;;14.32;56.12;94172.78;828171;71;33148;-81
2021/05/31 19:01:09;;;;;;;4.62;4.20;;;;;;;14.59;56.08;94222.28;828321;71;30561;-80
2021/05/31 19:16:14;;;;;;;3.65;3.35;;;;;;;14.67;55.88;94204.28;828209;71;32245;-82
2021/05/31 19:31:16;;;;;;;3.83;3.52;;;;;;;14.60;56.08;94215.36;829316;70;32684;-82
2021/05/31 19:46:10;;;;;;;7.12;6.42;;;;;;;14.52;57.12;94211.43;829495;71;30570;-84
2021/05/31 20:01:29;;;;;;;6.53;5.92;;;;;;;14.43;57.98;94206.17;835749;71;32703;-78
2021/05/31 20:16:17;;;;;;;4.67;4.28;;;;;;;14.30;58.23;94206.64;827455;71;32812;-78
2021/05/31 20:31:14;;;;;;;8.25;3.60;;;;;;;14.83;65.41;94204.50;827635;71;32620;-81
2021/05/31 20:46:09;;;;;;;5.00;4.60;;;;;;;15.40;61.67;94177.45;819728;71;28605;-78
2021/05/31 21:01:58;;;;;;;5.78;5.22;;;;;;;16.06;59.52;94190.95;834317;71;31284;-80
2021/05/31 21:16:13;;;;;;;5.85;5.35;;;;;;;16.29;58.18;94188.67;828418;71;29698;-78
2021/05/31 21:31:16;;;;;;;6.03;5.53;;;;;;;16.46;57.49;94187.67;827575;71;32704;-78
2021/05/31 21:46:08;;;;;;;6.17;5.67;;;;;;;16.55;57.05;94169.23;800809;74;29822;-79
2021/05/31 22:01:09;;;;;;;6.90;6.20;;;;;;;16.55;56.30;94174.53;828342;71;30700;-79
2021/05/31 22:31:11;;;;;;;6.10;5.60;;;;;;;16.30;55.46;94145.98;828411;71;30286;-78
2021/05/31 23:16:14;;;;;;;5.40;5.00;;;;;;;16.54;54.04;94114.70;827862;71;32752;-80
2021/05/31 23:31:16;;;;;;;5.42;4.92;;;;;;;16.50;53.68;94101.91;835331;71;32767;-79
2021/05/31 23:46:08;;;;;;;4.70;4.35;;;;;;;16.50;53.30;94102.47;828493;71;30233;-80
